Airfield :
LOGIN :

Register | Disclaimer

   EN    FR    IT 

 










Legend :    VFR   Marginal VFR   IFR   Intensive IFR   Very Intensive IFR
Visi :
Ceiling :
>= 8 km
>= 3000ft
5 to 8 km
1000 to 3000 ft
1500m to 5 km
500 to 1000 ft
800 to 1500m
200 to 500 ft
< 800m
< 200 ft
Symbols :   Thunderstorms  Fog  Heavy snow  Heavy precipitations  Wind > 20 kt
SIGMETs :     Misc.  Thunderstorms  Icing  Turbulence  Mountain Waves  Volcanic Ashes






- Airport Elevation : 1043 ft
- IATA code : SLD


LZSL - Sliac

CURRENT METAR :
  • 070900Z VRB01KT 9999 FEW053 23/15 Q1009

EXPIRED METARs :
  • 070830Z VRB02KT 9999 SCT045 23/15 Q1009
  • 070800Z VRB02KT 9999 FEW045 22/15 Q1009
  • 070730Z 36003KT 310V050 9999 FEW049 22/16 Q1009
  • 070700Z 01004KT 310V060 9999 FEW056 21/15 Q1009
  • 070630Z 36005KT 330V030 9999 FEW053 20/15 Q1009

TAF TAF LZSL
Valid from the 07 at 09:00 until the 07 at 18:00 UTC


070800Z 0709/0718 01004KT 9999 SCT040 SCT070
BECMG 0710/0712 16008KT
TEMPO 0711/0718 6000 SHRA FEW035TCU BKN040
PROB40
TEMPO 0712/0718 VRB20G35KT 3000 TSRA FEW015 SCT030CB BKN035



MET'MAP, your aeronautical weather chart ! - Copyright ORBIFLY December 2007 - Disclaimer

ORBIFLY MET'MAP TEAM :

Programming & Development : Alexandra Zaïnal
Concept & original design : Baudouin d'Aumeries
Assistance for programming : Marc-Olivier Méhu
Technical & hardware support : Manuel Goepfert

Contact : metmap@orbifly.com




SOURCES & CREDITS :

   NOAA